Beaumont, TX (77725)

4:30 PM CST on December 07, 2016 (GMT -0600)
BeaumontEOC | | Change Station
Active Advisory: Flood Warning

Elev 33 ft 30.08 °N, 94.10 °W | Updated 2 seconds ago

Overcast
Overcast
60.2 °F
Feels Like 60.2 °F
N
4.3
Wind Variable Wind from WSW
Gusts 5.0 mph

Today
High -- | Low -- °F
--% Chance of Precip.
Yesterday
High -- | Low -- °F
Precip. -- in
Pressure 30.07 in
Visibility 10.0 miles
Clouds Overcast 1900 ft
Dew Point 59 °F
Humidity 95%
Rainfall 0.00 in
Snow Depth Not available.
6:59 AM 5:16 PM
First Quarter, 56% visible
METAR KBMT 072215Z AUTO 04004KT 10SM OVC019 16/12 A3007 RMK AO2 T01630121
Pressure 30.07 in
Visibility 10.0 miles
Clouds Overcast 1900 ft
Dew Point 59 °F
Humidity 95%
Rainfall 0.00 in
Snow Depth Not available.
6:59 AM 5:16 PM
First Quarter, 56% visible
METAR KBMT 072215Z AUTO 04004KT 10SM OVC019 16/12 A3007 RMK AO2 T01630121

10-Day Weather Forecast

Almanac

Astronomy

Dec. 07, 2016 Rise Set
Actual Time
Civil Twilight
Nautical Twilight
Astronomical Twilight
Moon
Length of Visible Light
Length of Day
Tomorrow will be .
, % of the Moon is Illuminated

Today's Extremes

State Highs State Lows

Community

WunderPhotos

Upload Photos

1,956,210 photos uploaded!

WunderBlog® & News

Nearby

Air Quality

  Air Quality AQ Index Pollutant
Not available.

Snow Depth

Station Depth Elevation

Earthquake Activity

City Distance Mag. Time & Date
Minimum magnitude displayed is 2.5.

Coastal Water Temperatures

Place Temperature

Stations

Nearby Weather Stations

Station Location Temp. Windchill Dew Point Humidity Wind Precip. Elev Updated Type
                   

Watches & Warnings

Flood Warning
Issued: 8:49 AM CST Dec. 7, 2016 – National Weather Service

The Flood Warning continues for
the Pine Island Bayou near Sour Lake.
* Until Thursday evening... or until the warning is cancelled.
* At 7:45 am Wednesday the stage was 26.0 feet.
* Minor flooding is occurring and minor flooding is forecast.
* Flood stage is 25.0 feet.
* Forecast... the river will continue to fall to below flood stage by
Thursday morning.
* Impact... at stages near 25.0 feet... water inundates roads in
lowland areas near the river. Low spots on old Sour Lake Road are
under water.


Lat... Lon 3012 9445 3024 9423 3021 9407 3013 9406 3004 9445